sensor_id;sensor_type;location;lat;lon;timestamp;P1;durP1;ratioP1;P2;durP2;ratioP2
34541;SDS011;20784;51.332;12.410;2023-01-26T00:02:13;33.80;;;20.83;;
34541;SDS011;20784;51.332;12.410;2023-01-26T00:04:39;37.35;;;23.35;;
34541;SDS011;20784;51.332;12.410;2023-01-26T00:07:05;36.53;;;21.33;;
34541;SDS011;20784;51.332;12.410;2023-01-26T00:09:34;39.50;;;22.02;;
34541;SDS011;20784;51.332;12.410;2023-01-26T00:12:02;34.17;;;22.27;;
34541;SDS011;20784;51.332;12.410;2023-01-26T00:14:37;33.72;;;21.25;;
34541;SDS011;20784;51.332;12.410;2023-01-26T00:17:23;37.15;;;22.17;;
34541;SDS011;20784;51.332;12.410;2023-01-26T00:20:04;36.88;;;22.10;;
34541;SDS011;20784;51.332;12.410;2023-01-26T00:22:40;36.92;;;22.85;;
34541;SDS011;20784;51.332;12.410;2023-01-26T00:25:17;37.83;;;22.88;;
34541;SDS011;20784;51.332;12.410;2023-01-26T00:27:47;40.85;;;22.98;;
34541;SDS011;20784;51.332;12.410;2023-01-26T00:30:14;33.97;;;21.70;;
34541;SDS011;20784;51.332;12.410;2023-01-26T00:32:40;33.00;;;20.95;;
34541;SDS011;20784;51.332;12.410;2023-01-26T00:35:09;32.22;;;20.60;;
34541;SDS011;20784;51.332;12.410;2023-01-26T00:37:39;35.45;;;21.25;;
34541;SDS011;20784;51.332;12.410;2023-01-26T00:40:06;34.05;;;20.70;;
34541;SDS011;20784;51.332;12.410;2023-01-26T00:42:36;32.15;;;19.98;;
34541;SDS011;20784;51.332;12.410;2023-01-26T00:45:04;34.20;;;22.25;;
34541;SDS011;20784;51.332;12.410;2023-01-26T00:47:33;35.45;;;21.98;;
34541;SDS011;20784;51.332;12.410;2023-01-26T00:50:01;35.63;;;22.52;;
34541;SDS011;20784;51.332;12.410;2023-01-26T00:52:27;32.33;;;20.33;;
34541;SDS011;20784;51.332;12.410;2023-01-26T00:54:59;32.67;;;19.40;;
34541;SDS011;20784;51.332;12.410;2023-01-26T00:57:31;36.20;;;21.30;;
34541;SDS011;20784;51.332;12.410;2023-01-26T01:00:03;30.88;;;20.13;;
34541;SDS011;20784;51.332;12.410;2023-01-26T01:02:31;37.85;;;22.65;;
34541;SDS011;20784;51.332;12.410;2023-01-26T01:05:02;40.60;;;22.15;;
34541;SDS011;20784;51.332;12.410;2023-01-26T01:07:28;35.45;;;22.83;;
34541;SDS011;20784;51.332;12.410;2023-01-26T01:09:57;41.65;;;22.42;;
34541;SDS011;20784;51.332;12.410;2023-01-26T01:12:24;38.60;;;23.67;;
34541;SDS011;20784;51.332;12.410;2023-01-26T01:14:54;43.22;;;25.30;;
34541;SDS011;20784;51.332;12.410;2023-01-26T01:17:27;47.30;;;24.10;;
34541;SDS011;20784;51.332;12.410;2023-01-26T01:20:24;43.67;;;24.70;;
34541;SDS011;20784;51.332;12.410;2023-01-26T01:22:55;52.40;;;27.50;;
34541;SDS011;20784;51.332;12.410;2023-01-26T01:25:24;47.13;;;26.42;;
34541;SDS011;20784;51.332;12.410;2023-01-26T01:27:49;48.28;;;27.38;;
34541;SDS011;20784;51.332;12.410;2023-01-26T01:30:18;54.70;;;27.20;;
34541;SDS011;20784;51.332;12.410;2023-01-26T01:32:45;46.05;;;24.70;;
34541;SDS011;20784;51.332;12.410;2023-01-26T01:35:15;51.17;;;25.88;;
34541;SDS011;20784;51.332;12.410;2023-01-26T01:37:41;47.03;;;25.52;;
34541;SDS011;20784;51.332;12.410;2023-01-26T01:40:10;51.05;;;25.08;;
34541;SDS011;20784;51.332;12.410;2023-01-26T01:42:36;51.35;;;27.35;;
34541;SDS011;20784;51.332;12.410;2023-01-26T01:47:54;46.38;;;24.00;;
34541;SDS011;20784;51.332;12.410;2023-01-26T01:50:23;48.92;;;23.67;;
34541;SDS011;20784;51.332;12.410;2023-01-26T01:52:52;48.70;;;25.42;;
34541;SDS011;20784;51.332;12.410;2023-01-26T01:55:19;48.80;;;25.50;;
34541;SDS011;20784;51.332;12.410;2023-01-26T01:57:48;47.42;;;25.05;;
34541;SDS011;20784;51.332;12.410;2023-01-26T02:00:20;45.10;;;24.52;;
34541;SDS011;20784;51.332;12.410;2023-01-26T02:02:49;41.53;;;21.33;;
34541;SDS011;20784;51.332;12.410;2023-01-26T02:05:45;49.53;;;23.60;;
34541;SDS011;20784;51.332;12.410;2023-01-26T02:08:26;45.38;;;23.10;;
34541;SDS011;20784;51.332;12.410;2023-01-26T02:11:00;51.72;;;24.17;;
34541;SDS011;20784;51.332;12.410;2023-01-26T02:13:29;47.08;;;23.33;;
34541;SDS011;20784;51.332;12.410;2023-01-26T02:15:58;46.25;;;24.65;;
34541;SDS011;20784;51.332;12.410;2023-01-26T02:18:33;54.25;;;23.27;;
34541;SDS011;20784;51.332;12.410;2023-01-26T02:20:59;51.70;;;24.98;;
34541;SDS011;20784;51.332;12.410;2023-01-26T02:26:19;43.67;;;21.52;;
34541;SDS011;20784;51.332;12.410;2023-01-26T02:28:47;49.53;;;24.30;;
34541;SDS011;20784;51.332;12.410;2023-01-26T02:31:14;41.47;;;22.13;;
34541;SDS011;20784;51.332;12.410;2023-01-26T02:33:43;46.20;;;23.95;;
34541;SDS011;20784;51.332;12.410;2023-01-26T02:36:19;48.38;;;24.73;;
34541;SDS011;20784;51.332;12.410;2023-01-26T02:38:50;50.15;;;24.70;;
34541;SDS011;20784;51.332;12.410;2023-01-26T02:41:26;50.13;;;24.42;;
34541;SDS011;20784;51.332;12.410;2023-01-26T02:44:11;54.00;;;24.67;;
34541;SDS011;20784;51.332;12.410;2023-01-26T02:46:38;46.78;;;23.40;;
34541;SDS011;20784;51.332;12.410;2023-01-26T02:49:03;47.35;;;23.67;;
34541;SDS011;20784;51.332;12.410;2023-01-26T02:51:48;46.72;;;23.60;;
34541;SDS011;20784;51.332;12.410;2023-01-26T02:54:16;49.97;;;22.45;;
34541;SDS011;20784;51.332;12.410;2023-01-26T02:57:01;48.47;;;21.92;;
34541;SDS011;20784;51.332;12.410;2023-01-26T02:59:27;46.85;;;22.42;;
34541;SDS011;20784;51.332;12.410;2023-01-26T03:01:54;45.20;;;21.63;;
34541;SDS011;20784;51.332;12.410;2023-01-26T03:04:21;44.58;;;21.73;;
34541;SDS011;20784;51.332;12.410;2023-01-26T03:06:46;45.25;;;23.40;;
34541;SDS011;20784;51.332;12.410;2023-01-26T03:09:15;41.92;;;22.75;;
34541;SDS011;20784;51.332;12.410;2023-01-26T03:11:41;43.22;;;22.30;;
34541;SDS011;20784;51.332;12.410;2023-01-26T03:14:13;42.83;;;22.48;;
34541;SDS011;20784;51.332;12.410;2023-01-26T03:16:40;44.72;;;22.83;;
34541;SDS011;20784;51.332;12.410;2023-01-26T03:19:10;45.05;;;21.65;;
34541;SDS011;20784;51.332;12.410;2023-01-26T03:21:56;43.85;;;22.27;;
34541;SDS011;20784;51.332;12.410;2023-01-26T03:24:41;40.83;;;21.45;;
34541;SDS011;20784;51.332;12.410;2023-01-26T03:27:33;36.40;;;20.05;;
34541;SDS011;20784;51.332;12.410;2023-01-26T03:30:04;40.50;;;21.27;;
34541;SDS011;20784;51.332;12.410;2023-01-26T03:32:30;36.45;;;19.60;;
34541;SDS011;20784;51.332;12.410;2023-01-26T03:34:58;36.95;;;18.98;;
34541;SDS011;20784;51.332;12.410;2023-01-26T03:37:26;40.95;;;21.23;;
34541;SDS011;20784;51.332;12.410;2023-01-26T03:40:01;36.92;;;18.77;;
34541;SDS011;20784;51.332;12.410;2023-01-26T03:42:46;38.35;;;18.42;;
34541;SDS011;20784;51.332;12.410;2023-01-26T03:45:36;42.63;;;19.65;;
34541;SDS011;20784;51.332;12.410;2023-01-26T03:48:22;37.13;;;18.70;;
34541;SDS011;20784;51.332;12.410;2023-01-26T03:51:06;38.38;;;19.33;;
34541;SDS011;20784;51.332;12.410;2023-01-26T03:53:51;31.40;;;17.42;;
34541;SDS011;20784;51.332;12.410;2023-01-26T03:56:38;32.83;;;16.35;;
34541;SDS011;20784;51.332;12.410;2023-01-26T03:59:12;25.67;;;13.73;;
34541;SDS011;20784;51.332;12.410;2023-01-26T04:01:43;27.90;;;13.98;;
34541;SDS011;20784;51.332;12.410;2023-01-26T04:04:28;27.80;;;13.32;;
34541;SDS011;20784;51.332;12.410;2023-01-26T04:07:13;28.05;;;14.50;;
34541;SDS011;20784;51.332;12.410;2023-01-26T04:09:57;28.10;;;13.88;;
34541;SDS011;20784;51.332;12.410;2023-01-26T04:12:22;27.40;;;13.85;;
34541;SDS011;20784;51.332;12.410;2023-01-26T04:14:48;26.88;;;14.90;;
34541;SDS011;20784;51.332;12.410;2023-01-26T04:17:35;26.83;;;13.40;;
34541;SDS011;20784;51.332;12.410;2023-01-26T04:20:25;27.65;;;13.77;;
34541;SDS011;20784;51.332;12.410;2023-01-26T04:23:16;29.45;;;14.10;;
34541;SDS011;20784;51.332;12.410;2023-01-26T04:25:42;27.60;;;14.20;;
34541;SDS011;20784;51.332;12.410;2023-01-26T04:28:08;28.83;;;13.82;;
34541;SDS011;20784;51.332;12.410;2023-01-26T04:30:33;31.67;;;14.13;;
34541;SDS011;20784;51.332;12.410;2023-01-26T04:32:59;28.40;;;13.60;;
34541;SDS011;20784;51.332;12.410;2023-01-26T04:35:25;24.75;;;12.75;;
34541;SDS011;20784;51.332;12.410;2023-01-26T04:37:51;26.13;;;13.13;;
34541;SDS011;20784;51.332;12.410;2023-01-26T04:40:16;25.65;;;13.38;;
34541;SDS011;20784;51.332;12.410;2023-01-26T04:42:45;29.67;;;14.77;;
34541;SDS011;20784;51.332;12.410;2023-01-26T04:45:11;27.48;;;14.30;;
34541;SDS011;20784;51.332;12.410;2023-01-26T04:47:37;28.25;;;14.65;;
34541;SDS011;20784;51.332;12.410;2023-01-26T04:50:05;31.25;;;13.98;;
34541;SDS011;20784;51.332;12.410;2023-01-26T04:52:31;26.20;;;13.70;;
34541;SDS011;20784;51.332;12.410;2023-01-26T04:54:57;26.90;;;13.20;;
34541;SDS011;20784;51.332;12.410;2023-01-26T04:57:22;24.38;;;13.93;;
34541;SDS011;20784;51.332;12.410;2023-01-26T04:59:48;27.23;;;13.13;;
34541;SDS011;20784;51.332;12.410;2023-01-26T05:02:14;28.90;;;13.57;;
34541;SDS011;20784;51.332;12.410;2023-01-26T05:04:42;26.13;;;13.32;;
34541;SDS011;20784;51.332;12.410;2023-01-26T05:07:08;27.20;;;14.15;;
34541;SDS011;20784;51.332;12.410;2023-01-26T05:09:33;33.72;;;13.32;;
34541;SDS011;20784;51.332;12.410;2023-01-26T05:11:59;28.42;;;14.45;;
34541;SDS011;20784;51.332;12.410;2023-01-26T05:14:45;22.77;;;12.98;;
34541;SDS011;20784;51.332;12.410;2023-01-26T05:17:10;28.90;;;13.63;;
34541;SDS011;20784;51.332;12.410;2023-01-26T05:19:36;24.67;;;12.77;;
34541;SDS011;20784;51.332;12.410;2023-01-26T05:22:02;28.58;;;13.52;;
34541;SDS011;20784;51.332;12.410;2023-01-26T05:24:27;26.95;;;12.85;;
34541;SDS011;20784;51.332;12.410;2023-01-26T05:26:56;25.67;;;13.30;;
34541;SDS011;20784;51.332;12.410;2023-01-26T05:29:41;23.50;;;12.07;;
34541;SDS011;20784;51.332;12.410;2023-01-26T05:32:07;23.30;;;12.55;;
34541;SDS011;20784;51.332;12.410;2023-01-26T05:34:33;24.15;;;11.98;;
34541;SDS011;20784;51.332;12.410;2023-01-26T05:37:06;25.08;;;12.82;;
34541;SDS011;20784;51.332;12.410;2023-01-26T05:39:34;24.85;;;12.35;;
34541;SDS011;20784;51.332;12.410;2023-01-26T05:42:00;25.42;;;13.88;;
34541;SDS011;20784;51.332;12.410;2023-01-26T05:44:29;32.58;;;14.13;;
34541;SDS011;20784;51.332;12.410;2023-01-26T05:46:58;28.33;;;13.85;;
34541;SDS011;20784;51.332;12.410;2023-01-26T05:49:30;25.30;;;13.43;;
34541;SDS011;20784;51.332;12.410;2023-01-26T05:51:56;27.58;;;14.23;;
34541;SDS011;20784;51.332;12.410;2023-01-26T05:54:22;29.38;;;14.27;;
34541;SDS011;20784;51.332;12.410;2023-01-26T05:56:51;23.77;;;13.27;;
34541;SDS011;20784;51.332;12.410;2023-01-26T05:59:21;26.10;;;13.13;;
34541;SDS011;20784;51.332;12.410;2023-01-26T06:01:47;25.42;;;13.23;;
34541;SDS011;20784;51.332;12.410;2023-01-26T06:07:28;21.15;;;11.40;;
34541;SDS011;20784;51.332;12.410;2023-01-26T06:09:54;26.17;;;13.25;;
34541;SDS011;20784;51.332;12.410;2023-01-26T06:12:23;24.13;;;12.85;;
34541;SDS011;20784;51.332;12.410;2023-01-26T06:15:03;24.33;;;12.25;;
34541;SDS011;20784;51.332;12.410;2023-01-26T06:17:35;20.13;;;10.75;;
34541;SDS011;20784;51.332;12.410;2023-01-26T06:20:14;24.58;;;12.10;;
34541;SDS011;20784;51.332;12.410;2023-01-26T06:22:49;22.70;;;12.68;;
34541;SDS011;20784;51.332;12.410;2023-01-26T06:25:24;23.05;;;12.20;;
34541;SDS011;20784;51.332;12.410;2023-01-26T06:34:02;20.88;;;11.75;;
34541;SDS011;20784;51.332;12.410;2023-01-26T06:36:38;26.10;;;12.40;;
34541;SDS011;20784;51.332;12.410;2023-01-26T06:39:10;21.88;;;12.07;;
34541;SDS011;20784;51.332;12.410;2023-01-26T06:44:39;20.90;;;11.45;;
34541;SDS011;20784;51.332;12.410;2023-01-26T06:47:04;22.90;;;11.38;;
34541;SDS011;20784;51.332;12.410;2023-01-26T06:49:31;22.45;;;11.80;;
34541;SDS011;20784;51.332;12.410;2023-01-26T06:51:58;23.35;;;12.52;;
34541;SDS011;20784;51.332;12.410;2023-01-26T06:54:27;21.33;;;12.20;;
34541;SDS011;20784;51.332;12.410;2023-01-26T06:56:53;24.25;;;12.77;;
34541;SDS011;20784;51.332;12.410;2023-01-26T06:59:38;23.92;;;12.15;;
34541;SDS011;20784;51.332;12.410;2023-01-26T07:02:04;21.98;;;11.43;;
34541;SDS011;20784;51.332;12.410;2023-01-26T07:04:35;23.08;;;12.68;;
34541;SDS011;20784;51.332;12.410;2023-01-26T07:07:09;25.50;;;12.90;;
34541;SDS011;20784;51.332;12.410;2023-01-26T07:09:35;22.65;;;12.05;;
34541;SDS011;20784;51.332;12.410;2023-01-26T07:12:00;22.23;;;12.45;;
34541;SDS011;20784;51.332;12.410;2023-01-26T07:14:26;23.08;;;12.50;;
34541;SDS011;20784;51.332;12.410;2023-01-26T07:16:52;25.83;;;12.60;;
34541;SDS011;20784;51.332;12.410;2023-01-26T07:19:20;23.83;;;11.48;;
34541;SDS011;20784;51.332;12.410;2023-01-26T07:21:46;19.13;;;10.68;;
34541;SDS011;20784;51.332;12.410;2023-01-26T07:24:12;23.00;;;12.05;;
34541;SDS011;20784;51.332;12.410;2023-01-26T07:26:38;20.67;;;10.38;;
34541;SDS011;20784;51.332;12.410;2023-01-26T07:29:04;18.23;;;10.32;;
34541;SDS011;20784;51.332;12.410;2023-01-26T07:31:30;20.50;;;11.13;;
34541;SDS011;20784;51.332;12.410;2023-01-26T07:33:58;19.20;;;11.38;;
34541;SDS011;20784;51.332;12.410;2023-01-26T07:36:24;16.30;;;9.10;;
34541;SDS011;20784;51.332;12.410;2023-01-26T07:38:50;16.85;;;10.25;;
34541;SDS011;20784;51.332;12.410;2023-01-26T07:41:15;21.17;;;11.27;;
34541;SDS011;20784;51.332;12.410;2023-01-26T07:43:41;22.50;;;10.95;;
34541;SDS011;20784;51.332;12.410;2023-01-26T07:46:07;19.90;;;10.48;;
34541;SDS011;20784;51.332;12.410;2023-01-26T07:48:34;21.75;;;10.00;;
34541;SDS011;20784;51.332;12.410;2023-01-26T07:51:01;22.00;;;10.45;;
34541;SDS011;20784;51.332;12.410;2023-01-26T07:53:27;18.20;;;10.35;;
34541;SDS011;20784;51.332;12.410;2023-01-26T07:56:07;19.60;;;10.90;;
34541;SDS011;20784;51.332;12.410;2023-01-26T07:58:35;19.40;;;10.68;;
34541;SDS011;20784;51.332;12.410;2023-01-26T08:01:09;17.40;;;10.25;;
34541;SDS011;20784;51.332;12.410;2023-01-26T08:03:36;17.10;;;10.65;;
34541;SDS011;20784;51.332;12.410;2023-01-26T08:06:02;17.52;;;11.05;;
34541;SDS011;20784;51.332;12.410;2023-01-26T08:08:31;17.80;;;10.48;;
34541;SDS011;20784;51.332;12.410;2023-01-26T08:11:01;19.55;;;10.88;;
34541;SDS011;20784;51.332;12.410;2023-01-26T08:13:28;17.80;;;11.30;;
34541;SDS011;20784;51.332;12.410;2023-01-26T08:16:00;18.23;;;10.38;;
34541;SDS011;20784;51.332;12.410;2023-01-26T08:18:29;18.92;;;8.88;;
34541;SDS011;20784;51.332;12.410;2023-01-26T08:20:55;16.33;;;9.40;;
34541;SDS011;20784;51.332;12.410;2023-01-26T08:23:21;17.95;;;10.38;;
34541;SDS011;20784;51.332;12.410;2023-01-26T08:25:47;17.00;;;9.55;;
34541;SDS011;20784;51.332;12.410;2023-01-26T08:28:12;16.85;;;9.68;;
34541;SDS011;20784;51.332;12.410;2023-01-26T08:30:38;15.82;;;9.90;;
34541;SDS011;20784;51.332;12.410;2023-01-26T08:33:04;15.57;;;9.93;;
34541;SDS011;20784;51.332;12.410;2023-01-26T08:35:30;16.13;;;9.10;;
34541;SDS011;20784;51.332;12.410;2023-01-26T08:37:56;15.82;;;9.77;;
34541;SDS011;20784;51.332;12.410;2023-01-26T08:40:22;18.20;;;10.00;;
34541;SDS011;20784;51.332;12.410;2023-01-26T08:42:49;17.38;;;9.85;;
34541;SDS011;20784;51.332;12.410;2023-01-26T08:45:18;16.83;;;9.57;;
34541;SDS011;20784;51.332;12.410;2023-01-26T08:47:47;18.80;;;9.27;;
34541;SDS011;20784;51.332;12.410;2023-01-26T08:50:14;20.27;;;10.63;;
34541;SDS011;20784;51.332;12.410;2023-01-26T08:52:40;17.65;;;11.13;;
34541;SDS011;20784;51.332;12.410;2023-01-26T08:55:05;17.55;;;11.07;;
34541;SDS011;20784;51.332;12.410;2023-01-26T08:57:31;19.83;;;12.23;;
34541;SDS011;20784;51.332;12.410;2023-01-26T08:59:57;21.42;;;12.15;;
34541;SDS011;20784;51.332;12.410;2023-01-26T09:02:23;19.65;;;11.70;;
34541;SDS011;20784;51.332;12.410;2023-01-26T09:04:48;19.55;;;12.07;;
34541;SDS011;20784;51.332;12.410;2023-01-26T09:07:14;20.02;;;11.55;;
34541;SDS011;20784;51.332;12.410;2023-01-26T09:09:40;23.55;;;11.95;;
34541;SDS011;20784;51.332;12.410;2023-01-26T09:12:05;20.02;;;11.75;;
34541;SDS011;20784;51.332;12.410;2023-01-26T09:14:31;21.92;;;12.65;;
34541;SDS011;20784;51.332;12.410;2023-01-26T09:17:01;20.48;;;11.95;;
34541;SDS011;20784;51.332;12.410;2023-01-26T09:19:27;18.55;;;10.95;;
34541;SDS011;20784;51.332;12.410;2023-01-26T09:21:53;19.33;;;11.90;;
34541;SDS011;20784;51.332;12.410;2023-01-26T09:24:24;18.17;;;11.30;;
34541;SDS011;20784;51.332;12.410;2023-01-26T09:26:53;19.00;;;11.27;;
34541;SDS011;20784;51.332;12.410;2023-01-26T09:29:24;22.67;;;12.55;;
34541;SDS011;20784;51.332;12.410;2023-01-26T09:31:50;17.85;;;11.50;;
34541;SDS011;20784;51.332;12.410;2023-01-26T09:34:16;24.90;;;13.73;;
34541;SDS011;20784;51.332;12.410;2023-01-26T09:36:44;20.23;;;12.02;;
34541;SDS011;20784;51.332;12.410;2023-01-26T09:39:10;21.42;;;12.68;;
34541;SDS011;20784;51.332;12.410;2023-01-26T09:44:30;23.83;;;13.40;;
34541;SDS011;20784;51.332;12.410;2023-01-26T09:49:43;27.65;;;13.90;;
34541;SDS011;20784;51.332;12.410;2023-01-26T09:52:30;23.05;;;13.90;;
34541;SDS011;20784;51.332;12.410;2023-01-26T09:55:02;22.58;;;12.48;;
34541;SDS011;20784;51.332;12.410;2023-01-26T09:57:35;21.30;;;13.00;;
34541;SDS011;20784;51.332;12.410;2023-01-26T10:02:37;24.55;;;13.65;;
34541;SDS011;20784;51.332;12.410;2023-01-26T10:05:09;24.42;;;13.63;;
34541;SDS011;20784;51.332;12.410;2023-01-26T10:07:42;27.38;;;13.77;;
34541;SDS011;20784;51.332;12.410;2023-01-26T10:10:13;22.70;;;13.18;;
34541;SDS011;20784;51.332;12.410;2023-01-26T10:12:46;22.65;;;13.10;;
34541;SDS011;20784;51.332;12.410;2023-01-26T10:15:35;20.27;;;11.10;;
34541;SDS011;20784;51.332;12.410;2023-01-26T10:18:06;23.30;;;12.18;;
34541;SDS011;20784;51.332;12.410;2023-01-26T10:20:50;24.30;;;11.25;;
34541;SDS011;20784;51.332;12.410;2023-01-26T10:25:49;24.45;;;11.63;;
34541;SDS011;20784;51.332;12.410;2023-01-26T10:28:17;19.73;;;11.00;;
34541;SDS011;20784;51.332;12.410;2023-01-26T10:30:46;21.60;;;11.90;;
34541;SDS011;20784;51.332;12.410;2023-01-26T10:33:31;20.08;;;10.52;;
34541;SDS011;20784;51.332;12.410;2023-01-26T10:35:59;18.17;;;10.05;;
34541;SDS011;20784;51.332;12.410;2023-01-26T10:38:27;16.25;;;8.82;;
34541;SDS011;20784;51.332;12.410;2023-01-26T10:43:48;16.70;;;9.70;;
34541;SDS011;20784;51.332;12.410;2023-01-26T10:46:22;17.80;;;10.02;;
34541;SDS011;20784;51.332;12.410;2023-01-26T10:48:53;19.95;;;10.82;;
34541;SDS011;20784;51.332;12.410;2023-01-26T10:51:24;18.57;;;9.10;;
34541;SDS011;20784;51.332;12.410;2023-01-26T10:59:37;17.45;;;9.63;;
34541;SDS011;20784;51.332;12.410;2023-01-26T11:02:31;17.60;;;9.27;;
34541;SDS011;20784;51.332;12.410;2023-01-26T11:05:28;15.82;;;9.02;;
34541;SDS011;20784;51.332;12.410;2023-01-26T11:08:32;15.40;;;8.98;;
34541;SDS011;20784;51.332;12.410;2023-01-26T11:10:59;15.18;;;9.05;;
34541;SDS011;20784;51.332;12.410;2023-01-26T11:13:27;15.35;;;8.68;;
34541;SDS011;20784;51.332;12.410;2023-01-26T11:18:40;19.63;;;11.45;;
34541;SDS011;20784;51.332;12.410;2023-01-26T11:21:36;18.52;;;9.73;;
34541;SDS011;20784;51.332;12.410;2023-01-26T11:24:14;12.80;;;8.27;;
34541;SDS011;20784;51.332;12.410;2023-01-26T11:26:55;15.57;;;8.52;;
34541;SDS011;20784;51.332;12.410;2023-01-26T11:35:14;15.80;;;9.35;;
34541;SDS011;20784;51.332;12.410;2023-01-26T11:37:47;15.70;;;9.57;;
34541;SDS011;20784;51.332;12.410;2023-01-26T11:43:14;16.13;;;9.07;;
34541;SDS011;20784;51.332;12.410;2023-01-26T12:06:06;25.00;;;12.30;;
34541;SDS011;20784;51.332;12.410;2023-01-26T12:08:40;27.67;;;13.05;;
34541;SDS011;20784;51.332;12.410;2023-01-26T12:17:01;21.17;;;11.52;;
34541;SDS011;20784;51.332;12.410;2023-01-26T12:19:59;25.67;;;13.20;;
34541;SDS011;20784;51.332;12.410;2023-01-26T12:22:48;29.73;;;16.27;;
34541;SDS011;20784;51.332;12.410;2023-01-26T12:25:33;31.90;;;16.27;;
34541;SDS011;20784;51.332;12.410;2023-01-26T12:33:13;31.15;;;17.67;;
34541;SDS011;20784;51.332;12.410;2023-01-26T12:43:57;32.83;;;17.23;;
34541;SDS011;20784;51.332;12.410;2023-01-26T12:46:35;30.85;;;17.15;;
34541;SDS011;20784;51.332;12.410;2023-01-26T12:49:27;39.88;;;20.83;;
34541;SDS011;20784;51.332;12.410;2023-01-26T12:51:56;37.80;;;19.52;;
34541;SDS011;20784;51.332;12.410;2023-01-26T12:54:52;36.00;;;18.17;;
34541;SDS011;20784;51.332;12.410;2023-01-26T12:57:24;39.08;;;20.15;;
34541;SDS011;20784;51.332;12.410;2023-01-26T13:00:05;37.20;;;19.50;;
34541;SDS011;20784;51.332;12.410;2023-01-26T13:02:45;40.25;;;20.52;;
34541;SDS011;20784;51.332;12.410;2023-01-26T13:05:27;45.17;;;20.10;;
34541;SDS011;20784;51.332;12.410;2023-01-26T13:07:53;38.78;;;20.63;;
34541;SDS011;20784;51.332;12.410;2023-01-26T13:10:24;42.08;;;21.77;;
34541;SDS011;20784;51.332;12.410;2023-01-26T13:12:53;45.42;;;22.80;;
34541;SDS011;20784;51.332;12.410;2023-01-26T13:15:45;43.83;;;22.83;;
34541;SDS011;20784;51.332;12.410;2023-01-26T13:18:15;46.45;;;22.58;;
34541;SDS011;20784;51.332;12.410;2023-01-26T13:20:42;39.65;;;20.83;;
34541;SDS011;20784;51.332;12.410;2023-01-26T13:28:47;51.50;;;24.02;;
34541;SDS011;20784;51.332;12.410;2023-01-26T13:31:27;44.25;;;21.85;;
34541;SDS011;20784;51.332;12.410;2023-01-26T13:33:58;49.05;;;21.85;;
34541;SDS011;20784;51.332;12.410;2023-01-26T13:36:26;45.90;;;23.27;;
34541;SDS011;20784;51.332;12.410;2023-01-26T13:38:58;42.40;;;21.13;;
34541;SDS011;20784;51.332;12.410;2023-01-26T13:41:28;42.35;;;19.85;;
34541;SDS011;20784;51.332;12.410;2023-01-26T13:44:05;40.65;;;21.08;;
34541;SDS011;20784;51.332;12.410;2023-01-26T13:46:42;50.10;;;23.75;;
34541;SDS011;20784;51.332;12.410;2023-01-26T13:49:35;55.70;;;25.42;;
34541;SDS011;20784;51.332;12.410;2023-01-26T13:52:17;51.20;;;24.33;;
34541;SDS011;20784;51.332;12.410;2023-01-26T13:54:49;49.50;;;24.83;;
34541;SDS011;20784;51.332;12.410;2023-01-26T13:57:21;60.15;;;26.45;;
34541;SDS011;20784;51.332;12.410;2023-01-26T13:59:55;50.95;;;23.70;;
34541;SDS011;20784;51.332;12.410;2023-01-26T14:02:33;51.72;;;24.45;;
34541;SDS011;20784;51.332;12.410;2023-01-26T14:05:03;56.78;;;25.60;;
34541;SDS011;20784;51.332;12.410;2023-01-26T14:07:31;54.75;;;24.58;;
34541;SDS011;20784;51.332;12.410;2023-01-26T14:10:24;51.38;;;22.88;;
34541;SDS011;20784;51.332;12.410;2023-01-26T14:12:52;51.15;;;23.40;;
34541;SDS011;20784;51.332;12.410;2023-01-26T14:15:41;55.08;;;24.80;;
34541;SDS011;20784;51.332;12.410;2023-01-26T14:21:50;58.28;;;25.27;;
34541;SDS011;20784;51.332;12.410;2023-01-26T14:24:35;49.67;;;22.98;;
34541;SDS011;20784;51.332;12.410;2023-01-26T14:27:44;52.88;;;23.30;;
34541;SDS011;20784;51.332;12.410;2023-01-26T14:33:14;49.58;;;22.15;;
34541;SDS011;20784;51.332;12.410;2023-01-26T14:36:00;50.22;;;22.45;;
34541;SDS011;20784;51.332;12.410;2023-01-26T14:38:29;48.35;;;22.35;;
34541;SDS011;20784;51.332;12.410;2023-01-26T14:41:07;47.45;;;21.00;;
34541;SDS011;20784;51.332;12.410;2023-01-26T14:44:01;47.40;;;21.42;;
34541;SDS011;20784;51.332;12.410;2023-01-26T14:50:13;40.38;;;19.35;;
34541;SDS011;20784;51.332;12.410;2023-01-26T14:52:48;36.15;;;18.42;;
34541;SDS011;20784;51.332;12.410;2023-01-26T14:55:27;35.90;;;18.35;;
34541;SDS011;20784;51.332;12.410;2023-01-26T14:58:11;35.38;;;18.67;;
34541;SDS011;20784;51.332;12.410;2023-01-26T15:00:58;38.13;;;18.30;;
34541;SDS011;20784;51.332;12.410;2023-01-26T15:03:33;34.90;;;18.70;;
34541;SDS011;20784;51.332;12.410;2023-01-26T15:08:53;38.88;;;18.00;;
34541;SDS011;20784;51.332;12.410;2023-01-26T15:11:32;34.55;;;17.55;;
34541;SDS011;20784;51.332;12.410;2023-01-26T15:19:55;32.97;;;16.77;;
34541;SDS011;20784;51.332;12.410;2023-01-26T15:22:30;29.33;;;15.95;;
34541;SDS011;20784;51.332;12.410;2023-01-26T15:28:01;33.38;;;16.08;;
34541;SDS011;20784;51.332;12.410;2023-01-26T15:30:54;33.08;;;15.93;;
34541;SDS011;20784;51.332;12.410;2023-01-26T15:33:39;28.60;;;15.70;;
34541;SDS011;20784;51.332;12.410;2023-01-26T15:39:30;31.20;;;16.92;;
34541;SDS011;20784;51.332;12.410;2023-01-26T15:45:24;34.13;;;16.40;;
34541;SDS011;20784;51.332;12.410;2023-01-26T15:48:03;30.23;;;15.23;;
34541;SDS011;20784;51.332;12.410;2023-01-26T15:50:47;25.55;;;15.23;;
34541;SDS011;20784;51.332;12.410;2023-01-26T15:53:14;25.75;;;14.65;;
34541;SDS011;20784;51.332;12.410;2023-01-26T15:55:58;28.60;;;15.57;;
34541;SDS011;20784;51.332;12.410;2023-01-26T15:58:24;29.35;;;14.43;;
34541;SDS011;20784;51.332;12.410;2023-01-26T16:00:50;30.27;;;15.45;;
34541;SDS011;20784;51.332;12.410;2023-01-26T16:08:53;27.00;;;15.10;;
34541;SDS011;20784;51.332;12.410;2023-01-26T16:11:27;23.67;;;13.43;;
34541;SDS011;20784;51.332;12.410;2023-01-26T16:13:54;24.15;;;13.43;;
34541;SDS011;20784;51.332;12.410;2023-01-26T16:16:31;21.50;;;12.55;;
34541;SDS011;20784;51.332;12.410;2023-01-26T16:19:00;22.25;;;12.63;;
34541;SDS011;20784;51.332;12.410;2023-01-26T16:21:27;23.23;;;13.20;;
34541;SDS011;20784;51.332;12.410;2023-01-26T16:24:05;24.65;;;13.88;;
34541;SDS011;20784;51.332;12.410;2023-01-26T16:26:36;28.98;;;15.45;;
34541;SDS011;20784;51.332;12.410;2023-01-26T16:29:10;28.50;;;15.88;;
34541;SDS011;20784;51.332;12.410;2023-01-26T16:42:09;21.92;;;12.27;;
34541;SDS011;20784;51.332;12.410;2023-01-26T16:59:48;32.67;;;15.15;;
34541;SDS011;20784;51.332;12.410;2023-01-26T17:02:45;26.42;;;14.75;;
34541;SDS011;20784;51.332;12.410;2023-01-26T17:05:21;29.00;;;14.18;;
34541;SDS011;20784;51.332;12.410;2023-01-26T17:11:13;25.95;;;14.07;;
34541;SDS011;20784;51.332;12.410;2023-01-26T17:37:11;23.95;;;12.18;;
34541;SDS011;20784;51.332;12.410;2023-01-26T17:40:07;27.67;;;14.18;;
34541;SDS011;20784;51.332;12.410;2023-01-26T17:42:33;29.95;;;13.95;;